createdAt,value
2022-10-13T02:07:54.484Z,5.37
2022-10-13T02:10:36.306Z,5.30
2022-10-13T02:13:14.099Z,5.60
2022-10-13T02:15:53.062Z,4.97
2022-10-13T02:18:33.878Z,5.30
2022-10-13T02:21:07.676Z,5.17
2022-10-13T02:23:44.652Z,5.53
2022-10-13T02:26:18.653Z,5.93
2022-10-13T02:28:52.305Z,5.70
2022-10-13T02:31:25.826Z,5.40
2022-10-13T02:33:59.636Z,5.67
2022-10-13T02:36:33.721Z,5.73
2022-10-13T02:39:12.741Z,5.27
2022-10-13T02:41:46.440Z,5.07
2022-10-13T02:44:19.676Z,5.10
2022-10-13T02:46:53.029Z,4.87
2022-10-13T02:49:26.546Z,5.47
2022-10-13T02:51:59.983Z,5.00
2022-10-13T02:54:34.565Z,6.20
2022-10-13T02:57:07.847Z,5.37
2022-10-13T02:59:41.097Z,5.60
2022-10-13T03:02:14.815Z,5.97
2022-10-13T03:04:51.054Z,6.20
2022-10-13T03:07:24.666Z,6.10
2022-10-13T03:09:59.281Z,6.10
2022-10-13T03:12:33.294Z,5.60
2022-10-13T03:15:08.054Z,5.60
2022-10-13T03:17:41.633Z,5.63
2022-10-13T03:20:15.333Z,5.60
2022-10-13T03:22:50.057Z,4.63
2022-10-13T03:25:25.178Z,5.87
2022-10-13T03:27:58.715Z,5.37
2022-10-13T03:30:32.384Z,5.20
2022-10-13T03:33:07.520Z,6.00
2022-10-13T03:35:40.925Z,5.30
2022-10-13T03:38:16.090Z,6.17
2022-10-13T03:40:50.925Z,5.17
2022-10-13T03:43:24.751Z,6.37
2022-10-13T03:45:59.302Z,5.17
2022-10-13T03:48:33.964Z,5.83
2022-10-13T03:51:09.067Z,5.80
2022-10-13T03:53:42.589Z,5.20
2022-10-13T03:56:20.937Z,5.03
2022-10-13T03:58:56.569Z,5.67
2022-10-13T04:01:31.933Z,5.70
2022-10-13T04:04:07.877Z,5.67
2022-10-13T04:06:41.404Z,5.30
2022-10-13T04:09:15.135Z,5.43
2022-10-13T04:11:52.332Z,5.50
2022-10-13T04:14:25.614Z,5.00
2022-10-13T04:16:59.472Z,5.07
2022-10-13T04:19:32.746Z,5.23
2022-10-13T04:22:06.900Z,5.20
2022-10-13T04:24:40.449Z,5.40
2022-10-13T04:27:16.760Z,5.60
2022-10-13T04:29:49.991Z,5.53
2022-10-13T04:32:23.263Z,5.33
2022-10-13T04:34:57.000Z,5.33
2022-10-13T04:37:31.094Z,5.70
2022-10-13T04:40:06.547Z,5.80
2022-10-13T04:42:42.371Z,5.60
2022-10-13T04:45:15.903Z,5.30
2022-10-13T04:47:49.154Z,5.77
2022-10-13T04:50:22.947Z,4.87
2022-10-13T04:52:56.343Z,6.07
2022-10-13T04:55:29.771Z,4.73
2022-10-13T04:58:05.323Z,5.70
2022-10-13T05:00:38.957Z,5.53
2022-10-13T05:03:13.240Z,5.43
2022-10-13T05:05:47.366Z,5.37
2022-10-13T05:08:21.283Z,5.27
2022-10-13T05:10:56.467Z,5.60
2022-10-13T05:13:31.935Z,5.20
2022-10-13T05:16:09.357Z,5.63
2022-10-13T05:18:43.130Z,5.17
2022-10-13T05:21:20.784Z,5.37
2022-10-13T05:23:56.175Z,4.97
2022-10-13T05:26:32.090Z,4.30
2022-10-13T05:29:06.846Z,5.70
2022-10-13T05:31:41.556Z,4.83
2022-10-13T05:34:14.917Z,4.30
2022-10-13T05:36:48.390Z,4.63
2022-10-13T05:39:22.099Z,4.60
2022-10-13T05:41:55.942Z,5.00
2022-10-13T05:44:30.626Z,4.97
2022-10-13T05:47:07.491Z,4.33
2022-10-13T05:49:41.655Z,4.93
2022-10-13T05:52:15.057Z,4.80
2022-10-13T05:54:54.955Z,4.57
2022-10-13T05:57:34.820Z,4.77
2022-10-13T06:00:14.460Z,4.90
2022-10-13T06:02:55.924Z,4.90
2022-10-13T06:05:31.863Z,4.90
2022-10-13T06:08:05.863Z,4.30
2022-10-13T06:10:39.888Z,4.63
2022-10-13T06:13:13.604Z,5.00
2022-10-13T06:15:48.470Z,4.93
2022-10-13T06:18:22.011Z,5.07
2022-10-13T06:20:55.281Z,5.00
2022-10-13T06:23:28.687Z,4.40
2022-10-13T06:26:02.259Z,4.57
2022-10-13T06:28:36.084Z,5.00
2022-10-13T06:31:10.791Z,5.00
2022-10-13T06:33:44.898Z,4.43
2022-10-13T06:36:18.535Z,5.03
2022-10-13T06:38:53.360Z,4.57
2022-10-13T06:41:27.134Z,4.70
2022-10-13T06:44:01.244Z,4.90
2022-10-13T06:46:36.172Z,4.63
2022-10-13T06:49:10.364Z,5.67
2022-10-13T06:51:48.814Z,4.33
2022-10-13T06:54:22.642Z,4.90
2022-10-13T06:57:07.259Z,4.63
2022-10-13T06:59:40.613Z,4.47
2022-10-13T07:02:16.011Z,4.60
2022-10-13T07:04:50.136Z,4.80
2022-10-13T07:07:23.781Z,5.03
2022-10-13T07:10:00.578Z,4.87
2022-10-13T07:12:34.244Z,4.77
2022-10-13T07:15:09.366Z,4.17
2022-10-13T07:17:46.361Z,5.20
2022-10-13T07:20:20.360Z,4.33
2022-10-13T07:22:55.333Z,4.43
2022-10-13T07:25:41.732Z,4.90
2022-10-13T07:28:15.578Z,5.17
2022-10-13T07:30:48.995Z,4.90
2022-10-13T07:33:24.073Z,4.50
2022-10-13T07:36:00.641Z,4.63
2022-10-13T07:38:34.065Z,5.23
2022-10-13T07:41:13.947Z,5.07
2022-10-13T07:43:47.496Z,6.23
2022-10-13T07:46:22.008Z,5.97
2022-10-13T07:48:57.225Z,5.60
2022-10-13T07:51:30.737Z,5.73
2022-10-13T07:54:05.878Z,5.73
2022-10-13T07:56:39.317Z,5.23
2022-10-13T07:59:13.836Z,5.60
2022-10-13T08:01:47.450Z,5.43
2022-10-13T08:04:22.476Z,5.50
2022-10-13T08:06:56.663Z,5.57
2022-10-13T08:09:30.169Z,5.27
2022-10-13T08:12:03.703Z,4.93
2022-10-13T08:14:37.438Z,5.27
2022-10-13T08:17:11.062Z,4.67
2022-10-13T08:19:47.660Z,5.00
2022-10-13T08:22:25.919Z,4.87
2022-10-13T08:25:05.063Z,6.00
2022-10-13T08:27:50.591Z,5.43
2022-10-13T08:30:24.947Z,4.93
2022-10-13T08:32:59.012Z,5.67
2022-10-13T08:35:34.942Z,5.30
2022-10-13T08:38:09.794Z,5.03
2022-10-13T08:40:49.745Z,4.70
2022-10-13T08:43:26.175Z,5.13
2022-10-13T08:46:02.748Z,5.87
2022-10-13T08:48:43.561Z,5.37
2022-10-13T08:51:20.151Z,5.77
2022-10-13T08:54:01.387Z,5.40
2022-10-13T08:56:39.958Z,5.57
2022-10-13T08:59:17.850Z,5.57
2022-10-13T09:01:59.938Z,6.50
2022-10-13T09:04:45.272Z,6.53
2022-10-13T09:07:26.098Z,5.53
2022-10-13T09:09:59.883Z,5.50
2022-10-13T09:12:34.443Z,5.13
2022-10-13T09:15:11.185Z,6.03
2022-10-13T09:17:45.080Z,5.40
2022-10-13T09:20:23.607Z,6.10
2022-10-13T09:23:07.504Z,5.93
2022-10-13T09:25:45.494Z,5.83
2022-10-13T09:28:25.711Z,5.40
2022-10-13T09:31:10.275Z,5.53
2022-10-13T09:33:49.104Z,5.50
2022-10-13T09:36:22.692Z,4.83
2022-10-13T09:39:16.474Z,5.63
2022-10-13T09:41:50.338Z,5.80
2022-10-13T09:44:32.512Z,5.73
2022-10-13T09:47:06.762Z,6.33
2022-10-13T09:49:43.898Z,5.50
2022-10-13T09:52:25.186Z,5.63
2022-10-13T09:55:01.848Z,6.10
2022-10-13T09:57:44.754Z,5.43
2022-10-13T10:00:23.271Z,5.83
2022-10-13T10:03:03.008Z,5.33
2022-10-13T10:05:50.382Z,5.03
2022-10-13T10:08:38.851Z,5.40
2022-10-13T10:11:29.809Z,5.20
2022-10-13T10:14:16.121Z,5.27
2022-10-13T10:16:58.429Z,5.17
2022-10-13T10:19:52.247Z,4.97
2022-10-13T10:22:41.235Z,4.73
2022-10-13T10:25:33.274Z,4.07
2022-10-13T10:28:51.795Z,5.57
2022-10-13T10:31:44.516Z,5.07
2022-10-13T10:34:34.934Z,5.20
2022-10-13T10:37:22.740Z,5.00
2022-10-13T10:40:16.522Z,4.60
2022-10-13T10:43:19.915Z,5.80
2022-10-13T10:45:58.625Z,5.03
2022-10-13T10:48:38.717Z,4.73
2022-10-13T10:51:15.045Z,4.83
2022-10-13T10:54:10.646Z,4.80
2022-10-13T10:56:53.091Z,4.90
2022-10-13T10:59:51.267Z,4.97
2022-10-13T11:02:50.404Z,4.63
2022-10-13T11:05:23.958Z,4.43
2022-10-13T11:08:00.253Z,4.17
2022-10-13T11:10:36.818Z,4.63
2022-10-13T11:13:28.603Z,5.40
2022-10-13T11:16:29.742Z,4.23
2022-10-13T11:19:27.347Z,3.97
2022-10-13T11:22:27.424Z,4.00
2022-10-13T11:25:29.076Z,4.20
2022-10-13T11:28:24.009Z,4.40
2022-10-13T11:30:58.761Z,4.10
2022-10-13T11:33:54.820Z,3.50
2022-10-13T11:36:49.171Z,3.63
2022-10-13T11:40:16.686Z,3.83
2022-10-13T11:43:26.781Z,3.43
2022-10-13T11:46:25.794Z,4.00
2022-10-13T11:49:55.169Z,3.47
2022-10-13T11:53:13.468Z,3.30
2022-10-13T11:55:53.412Z,3.63
2022-10-13T11:58:30.254Z,3.77
2022-10-13T12:01:16.765Z,3.53
2022-10-13T12:03:51.420Z,3.70
2022-10-13T12:06:35.701Z,3.30
2022-10-13T12:09:21.386Z,3.73
2022-10-13T12:12:04.082Z,4.00
2022-10-13T12:14:44.377Z,3.80
2022-10-13T12:17:29.116Z,3.93
2022-10-13T12:20:23.284Z,4.17
2022-10-13T12:22:58.287Z,3.83
2022-10-13T12:25:33.738Z,4.17
2022-10-13T12:28:07.278Z,4.57
2022-10-13T12:30:40.816Z,4.00
2022-10-13T12:33:27.037Z,3.40
2022-10-13T12:36:19.857Z,3.80
2022-10-13T12:38:57.704Z,3.90
2022-10-13T12:41:35.706Z,3.63
2022-10-13T12:44:15.816Z,3.97
2022-10-13T12:46:52.395Z,4.27
2022-10-13T12:49:28.045Z,4.03
2022-10-13T12:52:08.087Z,4.20
2022-10-13T12:54:50.003Z,4.73
2022-10-13T12:57:37.982Z,4.67
2022-10-13T13:00:24.439Z,4.67
2022-10-13T13:03:01.448Z,4.77
2022-10-13T13:05:39.916Z,5.07
2022-10-13T13:08:27.564Z,5.30
2022-10-13T13:11:05.387Z,4.63
2022-10-13T13:13:40.226Z,4.60
2022-10-13T13:16:20.816Z,4.77
2022-10-13T13:18:54.494Z,4.17
2022-10-13T13:21:28.317Z,4.67
2022-10-13T13:24:07.463Z,4.03
2022-10-13T13:26:51.993Z,4.50
2022-10-13T13:29:26.986Z,5.27
2022-10-13T13:32:01.415Z,4.57
2022-10-13T13:34:43.266Z,4.93
2022-10-13T13:37:28.903Z,4.87
2022-10-13T13:40:02.962Z,4.87
2022-10-13T13:42:42.004Z,4.60
2022-10-13T13:45:19.111Z,3.90
2022-10-13T13:47:54.895Z,4.60
2022-10-13T13:50:35.002Z,4.17
2022-10-13T13:53:08.612Z,3.63
2022-10-13T13:55:44.718Z,3.73
2022-10-13T13:58:18.116Z,3.80
2022-10-13T14:00:54.184Z,3.33
2022-10-13T14:03:28.123Z,3.17
2022-10-13T14:06:01.816Z,3.63
2022-10-13T14:08:42.865Z,3.30
2022-10-13T14:11:17.783Z,3.27
2022-10-13T14:13:51.187Z,3.10
2022-10-13T14:16:54.709Z,3.07
2022-10-13T14:19:29.545Z,3.20
2022-10-13T14:22:07.162Z,3.40
2022-10-13T14:24:43.362Z,3.20
2022-10-13T14:27:16.755Z,3.40
2022-10-13T14:29:50.202Z,2.57
2022-10-13T14:32:24.975Z,3.30
2022-10-13T14:34:58.321Z,3.63
2022-10-13T14:37:33.733Z,3.57
2022-10-13T14:40:09.147Z,3.80
2022-10-13T14:42:43.317Z,3.90
2022-10-13T14:45:17.940Z,4.30
2022-10-13T14:47:54.810Z,3.77
2022-10-13T14:50:28.340Z,4.13
2022-10-13T14:53:02.219Z,5.57
2022-10-13T14:55:43.958Z,5.37
2022-10-13T14:58:17.561Z,5.63
2022-10-13T15:00:51.975Z,5.60
2022-10-13T15:03:27.918Z,4.80
2022-10-13T15:06:01.566Z,5.63
2022-10-13T15:08:35.037Z,4.83
2022-10-13T15:11:09.020Z,5.27
2022-10-13T15:13:43.931Z,4.73
2022-10-13T15:16:19.951Z,3.93
2022-10-13T15:18:55.753Z,4.17
2022-10-13T15:21:29.675Z,4.10
2022-10-13T15:24:03.347Z,4.57
2022-10-13T15:26:36.887Z,4.10
2022-10-13T15:29:10.410Z,4.33
2022-10-13T15:31:47.849Z,4.37
2022-10-13T15:34:22.805Z,4.57
2022-10-13T15:36:56.243Z,4.27
2022-10-13T15:39:29.557Z,4.10
2022-10-13T15:42:02.909Z,4.90
2022-10-13T15:45:08.757Z,4.60
2022-10-13T15:47:29.598Z,4.40
2022-10-13T15:50:06.003Z,4.77
2022-10-13T15:52:41.590Z,5.33
2022-10-13T15:55:15.290Z,5.13
2022-10-13T15:57:48.976Z,5.53
2022-10-13T16:00:22.652Z,5.60
2022-10-13T16:02:57.209Z,4.83
2022-10-13T16:05:32.155Z,4.33
2022-10-13T16:08:05.720Z,4.90
2022-10-13T16:10:41.190Z,4.67
2022-10-13T16:13:16.092Z,5.03
2022-10-13T16:15:59.093Z,5.40
2022-10-13T16:18:35.213Z,5.37
2022-10-13T16:21:18.777Z,5.27
2022-10-13T16:23:52.892Z,5.30
2022-10-13T16:26:26.476Z,5.87
2022-10-13T16:29:00.115Z,5.43
2022-10-13T16:31:44.266Z,5.47
2022-10-13T16:34:19.370Z,6.33
2022-10-13T16:37:08.057Z,5.20
2022-10-13T16:39:44.580Z,5.07
2022-10-13T16:42:20.051Z,4.80
2022-10-13T16:44:53.366Z,5.00
2022-10-13T16:47:27.217Z,5.07
2022-10-13T16:50:00.976Z,5.30
2022-10-13T16:52:35.780Z,5.97
2022-10-13T16:55:10.306Z,6.30
2022-10-13T16:57:51.265Z,6.80
2022-10-13T17:00:25.369Z,6.13
2022-10-13T17:03:09.151Z,6.73
2022-10-13T17:05:42.515Z,6.13
2022-10-13T17:08:17.162Z,6.33
2022-10-13T17:10:57.791Z,6.10
2022-10-13T17:13:33.903Z,6.13
2022-10-13T17:16:08.203Z,5.77
2022-10-13T17:18:41.458Z,5.23
2022-10-13T17:21:17.421Z,5.37
2022-10-13T17:23:52.215Z,5.43
2022-10-13T17:26:26.094Z,5.80
2022-10-13T17:28:59.543Z,5.53
2022-10-13T17:31:32.843Z,4.73
2022-10-13T17:34:06.798Z,3.90
2022-10-13T17:36:40.015Z,3.57
2022-10-13T17:39:16.464Z,3.30
2022-10-13T17:41:49.859Z,3.13
2022-10-13T17:44:23.386Z,3.53
2022-10-13T17:46:56.852Z,3.60
2022-10-13T17:49:30.458Z,3.10
2022-10-13T17:52:04.203Z,3.03
2022-10-13T17:54:39.275Z,2.70
2022-10-13T17:57:12.758Z,3.30
2022-10-13T17:59:47.465Z,3.10
2022-10-13T18:02:21.905Z,3.37
2022-10-13T18:04:55.145Z,3.60
2022-10-13T18:07:28.508Z,3.37
2022-10-13T18:10:03.230Z,3.57
2022-10-13T18:12:37.448Z,3.67
2022-10-13T18:15:11.227Z,3.93
2022-10-13T18:17:53.305Z,3.70
2022-10-13T18:20:27.291Z,3.47
2022-10-13T18:23:00.700Z,4.20
2022-10-13T18:25:42.506Z,4.27
2022-10-13T18:28:17.875Z,4.37
2022-10-13T18:30:51.492Z,4.47
2022-10-13T18:33:25.127Z,4.47
2022-10-13T18:35:59.159Z,4.80
2022-10-13T18:38:32.418Z,4.57
2022-10-13T18:41:07.452Z,4.60
2022-10-13T18:43:41.227Z,5.03
2022-10-13T18:46:14.528Z,5.47
2022-10-13T18:48:48.260Z,4.73
2022-10-13T18:51:22.450Z,5.03
2022-10-13T18:54:26.320Z,5.27
2022-10-13T18:57:00.997Z,5.03
2022-10-13T18:59:34.287Z,4.60
2022-10-13T19:02:08.047Z,5.27
2022-10-13T19:04:41.646Z,4.70
2022-10-13T19:07:14.947Z,5.07
2022-10-13T19:09:48.298Z,5.17
2022-10-13T19:12:22.921Z,5.13
2022-10-13T19:14:56.444Z,5.00
2022-10-13T19:17:29.705Z,6.80
2022-10-13T19:20:03.064Z,6.97
2022-10-13T19:22:36.368Z,6.50
2022-10-13T19:25:10.666Z,7.30
2022-10-13T19:27:45.306Z,6.77
2022-10-13T19:30:19.065Z,6.83
2022-10-13T19:32:53.061Z,6.17
2022-10-13T19:35:26.708Z,6.67
2022-10-13T19:38:00.104Z,5.70
2022-10-13T19:40:42.161Z,6.20
2022-10-13T19:43:18.119Z,6.87
2022-10-13T19:45:58.770Z,6.70
2022-10-13T19:48:33.417Z,6.00
2022-10-13T19:51:09.449Z,5.77
2022-10-13T19:53:43.588Z,6.70
2022-10-13T19:56:26.335Z,6.13
2022-10-13T19:59:01.407Z,6.00
2022-10-13T20:01:40.118Z,6.83
2022-10-13T20:04:19.178Z,6.20
2022-10-13T20:06:52.931Z,6.67
2022-10-13T20:09:26.364Z,6.73
2022-10-13T20:12:09.707Z,7.33
2022-10-13T20:14:45.463Z,6.27
2022-10-13T20:17:19.196Z,7.57
2022-10-13T20:19:53.183Z,6.67
2022-10-13T20:22:26.880Z,7.07
2022-10-13T20:25:00.252Z,6.83
2022-10-13T20:27:33.871Z,7.43
2022-10-13T20:30:14.349Z,6.40
2022-10-13T20:32:47.574Z,5.83
2022-10-13T20:35:20.788Z,7.70
2022-10-13T20:37:54.414Z,7.67
2022-10-13T20:40:27.754Z,7.03
2022-10-13T20:43:01.354Z,7.57
2022-10-13T20:45:36.169Z,7.53
2022-10-13T20:48:09.457Z,6.70
2022-10-13T20:50:42.704Z,6.90
2022-10-13T20:53:15.921Z,7.00
2022-10-13T20:55:57.458Z,6.63
2022-10-13T20:58:33.481Z,6.37
2022-10-13T21:01:09.354Z,6.43
2022-10-13T21:03:42.897Z,6.53
2022-10-13T21:06:16.534Z,7.20
2022-10-13T21:08:49.791Z,6.57
2022-10-13T21:11:25.057Z,5.83
2022-10-13T21:13:58.508Z,6.53
2022-10-13T21:16:34.083Z,6.00
2022-10-13T21:19:08.347Z,5.60
2022-10-13T21:21:42.017Z,5.97
2022-10-13T21:24:15.307Z,5.60
2022-10-13T21:26:48.853Z,5.17
2022-10-13T21:29:22.389Z,5.40
2022-10-13T21:31:57.308Z,5.60
2022-10-13T21:34:30.729Z,5.93
2022-10-13T21:37:04.120Z,6.20
2022-10-13T21:39:37.525Z,5.20
2022-10-13T21:42:10.865Z,4.70
2022-10-13T21:44:45.010Z,5.40
2022-10-13T21:47:20.214Z,4.93
2022-10-13T21:49:55.018Z,5.33
2022-10-13T21:52:32.563Z,4.80
2022-10-13T21:55:07.306Z,5.77
2022-10-13T21:57:54.003Z,5.60
2022-10-13T22:00:28.706Z,4.90
2022-10-13T22:03:03.694Z,5.27
2022-10-13T22:05:38.356Z,5.27
2022-10-13T22:08:12.211Z,5.73
2022-10-13T22:10:45.983Z,5.57
2022-10-13T22:13:25.257Z,6.03
2022-10-13T22:16:04.842Z,5.57
2022-10-13T22:18:39.571Z,5.50
2022-10-13T22:21:16.283Z,4.63
2022-10-13T22:23:50.445Z,5.07
2022-10-13T22:26:23.951Z,5.00
2022-10-13T22:29:03.439Z,5.27
2022-10-13T22:31:38.004Z,5.43
2022-10-13T22:34:14.076Z,4.63
2022-10-13T22:36:47.429Z,5.20
2022-10-13T22:39:20.773Z,4.90
2022-10-13T22:41:54.852Z,4.93
2022-10-13T22:44:28.339Z,5.17
2022-10-13T22:47:01.749Z,4.97
2022-10-13T22:49:36.871Z,5.40
2022-10-13T22:52:10.268Z,5.50
2022-10-13T22:54:44.069Z,5.57
2022-10-13T22:57:17.311Z,5.50
2022-10-13T22:59:50.566Z,5.40
2022-10-13T23:02:24.287Z,5.23
2022-10-13T23:04:59.125Z,5.47
2022-10-13T23:07:32.395Z,4.70
2022-10-13T23:10:06.768Z,5.40
2022-10-13T23:12:40.513Z,5.40
2022-10-13T23:15:13.735Z,5.67
2022-10-13T23:17:47.020Z,5.37
2022-10-13T23:20:21.705Z,5.40
2022-10-13T23:22:54.899Z,5.03
2022-10-13T23:25:28.456Z,6.13
2022-10-13T23:28:01.969Z,5.90
2022-10-13T23:30:35.261Z,5.73
2022-10-13T23:33:08.999Z,6.03
2022-10-13T23:35:44.090Z,5.60
2022-10-13T23:38:17.571Z,5.77
2022-10-13T23:40:53.409Z,5.93
2022-10-13T23:43:27.544Z,5.77
2022-10-13T23:46:01.962Z,6.20
2022-10-13T23:48:35.380Z,6.30
2022-10-13T23:51:16.641Z,6.20
2022-10-13T23:53:50.299Z,6.57
2022-10-13T23:56:24.360Z,6.40
2022-10-13T23:59:02.689Z,5.93
